Time;durP1;ratioP1;P1;durP2;ratioP2;P2;SDS_P1;SDS_P2;PMS_P1;PMS_P2;Temp;Humidity;BMP_temperature;BMP_pressure;BME280_temperature;BME280_humidity;BME280_pressure;Samples;Min_cycle;Max_cycle;Signal;HPM_P1;HPM_P2
2021/08/26 00:06:49;;;;;;;1999.90;999.90;;;;;;;15.20;75.71;97652.16;5053667;28;20041;-68
2021/08/26 00:09:17;;;;;;;1999.90;999.90;;;;;;;15.00;76.28;97654.25;5053465;28;20105;-68
2021/08/26 00:11:52;;;;;;;1999.90;999.90;;;;;;;14.77;76.92;97658.63;5052669;28;20053;-68
2021/08/26 00:14:19;;;;;;;1999.90;999.90;;;;;;;14.84;76.86;97654.38;5052349;28;20045;-68
2021/08/26 00:16:46;;;;;;;1999.90;999.90;;;;;;;14.71;76.99;97654.56;5052763;28;20097;-69
2021/08/26 00:19:13;;;;;;;1999.90;999.90;;;;;;;14.85;77.03;97651.22;5052243;28;20430;-69
2021/08/26 00:21:41;;;;;;;1999.90;999.90;;;;;;;15.01;76.35;97651.09;5053560;28;20053;-68
2021/08/26 00:24:09;;;;;;;1999.90;999.90;;;;;;;15.00;75.86;97649.47;5052610;28;20102;-68
2021/08/26 00:26:35;;;;;;;1999.90;999.90;;;;;;;14.75;77.12;97641.50;5050368;28;20491;-68
2021/08/26 00:29:04;;;;;;;1999.90;999.90;;;;;;;14.81;76.33;97638.41;5059293;28;20423;-68
2021/08/26 00:31:31;;;;;;;1999.90;999.90;;;;;;;15.17;75.51;97631.47;5055376;28;20057;-69
2021/08/26 00:33:58;;;;;;;1999.90;999.90;;;;;;;15.18;75.42;97637.81;5051353;28;20647;-69
2021/08/26 00:36:25;;;;;;;1999.90;999.90;;;;;;;14.84;76.37;97630.13;5053465;28;20442;-68
2021/08/26 00:38:51;;;;;;;1999.90;999.90;;;;;;;15.11;75.43;97624.59;5051098;28;20523;-68
2021/08/26 00:41:20;;;;;;;1999.90;999.90;;;;;;;15.30;75.04;97623.69;5050777;28;20119;-69
2021/08/26 00:43:46;;;;;;;1999.90;999.90;;;;;;;15.23;75.21;97618.81;5060666;28;20882;-69
2021/08/26 00:46:14;;;;;;;1999.90;999.90;;;;;;;15.11;75.58;97619.84;5052791;28;20434;-67
2021/08/26 00:48:44;;;;;;;1999.90;999.90;;;;;;;15.21;75.10;97612.81;5051586;28;20069;-68
2021/08/26 00:51:15;;;;;;;1999.90;999.90;;;;;;;15.32;74.85;97604.63;5051415;28;20422;-69
2021/08/26 00:53:43;;;;;;;1999.90;999.90;;;;;;;14.89;76.25;97598.41;5052347;28;20102;-68
2021/08/26 00:56:15;;;;;;;1999.90;999.90;;;;;;;14.90;76.66;97600.00;5052175;28;20049;-69
2021/08/26 00:58:48;;;;;;;1999.90;999.90;;;;;;;15.11;75.69;97600.34;5060384;28;20429;-68
2021/08/26 01:01:20;;;;;;;1999.90;999.90;;;;;;;15.04;75.97;97599.44;5034414;28;20058;-68
2021/08/26 01:04:07;;;;;;;1999.90;999.90;;;;;;;15.14;75.59;97602.38;5052212;28;20063;-69
2021/08/26 01:06:44;;;;;;;1999.90;999.90;;;;;;;15.16;75.79;97596.44;5051390;28;20426;-69
2021/08/26 01:09:14;;;;;;;1999.90;999.90;;;;;;;15.17;75.71;97586.91;5051680;28;20504;-68
2021/08/26 01:11:42;;;;;;;1999.90;999.90;;;;;;;15.26;75.52;97590.22;5049973;28;20056;-68
2021/08/26 01:14:11;;;;;;;1999.90;999.90;;;;;;;15.22;75.43;97589.38;5052230;28;20048;-69
2021/08/26 01:16:38;;;;;;;1999.90;999.90;;;;;;;15.12;75.47;97582.47;5051409;28;20053;-69
2021/08/26 01:19:05;;;;;;;1999.90;999.90;;;;;;;15.28;74.99;97575.94;5051261;28;20085;-68
2021/08/26 01:21:33;;;;;;;1999.90;999.90;;;;;;;14.85;76.42;97580.84;5052411;28;20047;-68
2021/08/26 01:24:04;;;;;;;1999.90;999.90;;;;;;;15.23;75.43;97579.84;5051607;28;20422;-69
2021/08/26 01:26:40;;;;;;;;;;;;;;;15.28;75.01;97570.34;5050686;28;20057;-68
2021/08/26 01:29:07;;;;;;;1999.90;999.90;;;;;;;15.33;75.14;97578.38;5050727;28;19925;-69
2021/08/26 01:31:34;;;;;;;1999.90;999.90;;;;;;;14.93;77.00;97585.31;5062329;28;20465;-69
2021/08/26 01:34:03;;;;;;;1999.90;999.90;;;;;;;14.91;77.73;97573.78;5058383;28;20045;-68
2021/08/26 01:36:34;;;;;;;1999.90;999.90;;;;;;;14.84;78.45;97563.34;5050876;28;20446;-69
2021/08/26 01:39:10;;;;;;;1999.90;999.90;;;;;;;14.94;78.70;97567.47;5055320;28;20523;-68
2021/08/26 01:41:50;;;;;;;1999.90;999.90;;;;;;;14.84;78.53;97571.69;5053681;28;20053;-68
2021/08/26 01:44:21;;;;;;;1999.90;999.90;;;;;;;14.75;79.56;97562.78;5050368;28;20041;-68
2021/08/26 01:46:48;;;;;;;1999.90;999.90;;;;;;;14.87;79.68;97564.56;5050888;28;20049;-68
2021/08/26 01:49:16;;;;;;;1999.90;999.90;;;;;;;15.04;78.81;97557.69;5052045;28;20072;-69
2021/08/26 01:51:43;;;;;;;1999.90;999.90;;;;;;;15.10;78.24;97564.53;5051220;28;20052;-69
2021/08/26 01:54:09;;;;;;;1999.90;999.90;;;;;;;15.09;78.07;97551.78;5057988;28;20049;-69
2021/08/26 01:56:39;;;;;;;1999.90;999.90;;;;;;;15.07;77.68;97549.38;5051445;28;20107;-68
2021/08/26 01:59:06;;;;;;;1999.90;999.90;;;;;;;15.13;77.51;97549.84;5051188;28;20041;-68
2021/08/26 02:01:33;;;;;;;1999.90;999.90;;;;;;;15.18;77.39;97543.16;5051141;28;20056;-69
2021/08/26 02:04:00;;;;;;;1999.90;999.90;;;;;;;15.29;77.27;97538.56;5051149;28;20059;-69
2021/08/26 02:06:26;;;;;;;1999.90;999.90;;;;;;;15.09;77.30;97535.88;5051238;28;20319;-69
2021/08/26 02:08:53;;;;;;;1999.90;999.90;;;;;;;15.03;78.09;97526.22;5050612;28;20056;-69
2021/08/26 02:11:20;;;;;;;1999.90;999.90;;;;;;;15.13;77.49;97525.59;5050987;28;20052;-69
2021/08/26 02:13:47;;;;;;;1999.90;999.90;;;;;;;15.25;76.85;97515.41;5051820;28;20045;-69
2021/08/26 02:16:17;;;;;;;1999.90;999.90;;;;;;;14.98;78.54;97523.78;5054028;28;20279;-69
2021/08/26 02:18:44;;;;;;;1999.90;999.90;;;;;;;15.11;77.61;97514.03;5054250;28;20049;-69
2021/08/26 02:21:12;;;;;;;1999.90;999.90;;;;;;;15.13;77.13;97508.88;5055861;28;20048;-69
2021/08/26 02:23:38;;;;;;;1999.90;999.90;;;;;;;15.21;76.82;97509.00;5054748;28;20446;-69
2021/08/26 02:26:06;;;;;;;1999.90;999.90;;;;;;;15.28;77.23;97501.53;5055028;28;20075;-68
2021/08/26 02:28:33;;;;;;;1999.90;999.90;;;;;;;15.28;76.75;97503.50;5054425;28;20048;-70
2021/08/26 02:31:00;;;;;;;1999.90;999.90;;;;;;;15.44;76.28;97498.56;5055494;28;20334;-69
2021/08/26 02:33:26;;;;;;;1999.90;999.90;;;;;;;15.50;76.21;97493.47;5054458;28;20099;-69
2021/08/26 02:35:53;;;;;;;1999.90;999.90;;;;;;;15.46;75.95;97498.97;5054163;28;20049;-68
2021/08/26 02:38:20;;;;;;;1999.90;999.90;;;;;;;15.68;74.63;97496.44;5055568;28;20048;-68
2021/08/26 02:40:47;;;;;;;1999.90;999.90;;;;;;;15.54;75.49;97493.47;5054434;28;20049;-69
2021/08/26 02:43:13;;;;;;;1999.90;999.90;;;;;;;15.52;75.38;97490.28;5053879;28;20114;-68
2021/08/26 02:45:40;;;;;;;1999.90;999.90;;;;;;;15.56;74.93;97486.38;5055101;28;20133;-69
2021/08/26 02:48:07;;;;;;;1999.90;999.90;;;;;;;15.48;75.52;97485.47;5054089;28;20287;-68
2021/08/26 02:50:34;;;;;;;1999.90;999.90;;;;;;;15.05;76.68;97484.91;5058504;28;20052;-69
2021/08/26 02:53:01;;;;;;;1999.90;999.90;;;;;;;15.28;76.39;97475.66;5054155;28;20488;-68
2021/08/26 02:55:28;;;;;;;1999.90;999.90;;;;;;;15.26;76.48;97472.47;5054318;28;20049;-67
2021/08/26 02:57:55;;;;;;;1999.90;999.90;;;;;;;15.55;75.85;97473.59;5054272;28;20488;-69
2021/08/26 03:00:22;;;;;;;1999.90;999.90;;;;;;;15.37;75.68;97467.81;5037358;28;20053;-69
2021/08/26 03:02:49;;;;;;;1999.90;999.90;;;;;;;15.60;75.17;97475.25;5054019;28;20045;-68
2021/08/26 03:05:16;;;;;;;1999.90;999.90;;;;;;;15.59;74.93;97476.44;5054016;28;20107;-67
2021/08/26 03:07:43;;;;;;;1999.90;999.90;;;;;;;15.38;76.07;97458.28;5053349;28;20606;-68
2021/08/26 03:10:10;;;;;;;1999.90;999.90;;;;;;;15.51;75.38;97464.41;5054808;28;20354;-69
2021/08/26 03:12:37;;;;;;;1999.90;999.90;;;;;;;15.24;76.05;97464.47;5054145;28;20052;-69
2021/08/26 03:15:04;;;;;;;1999.90;999.90;;;;;;;15.27;76.30;97465.69;5053885;28;20387;-68
2021/08/26 03:17:30;;;;;;;1999.90;999.90;;;;;;;15.43;75.64;97462.72;5053944;28;20159;-69
2021/08/26 03:19:57;;;;;;;1999.90;999.90;;;;;;;15.41;75.67;97460.31;5054127;28;20045;-69
2021/08/26 03:22:24;;;;;;;1999.90;999.90;;;;;;;15.48;75.44;97465.16;5053576;28;20048;-68
2021/08/26 03:24:50;;;;;;;1999.90;999.90;;;;;;;15.36;75.54;97454.28;5053237;28;20052;-69
2021/08/26 03:27:17;;;;;;;1999.90;999.90;;;;;;;15.46;75.40;97448.81;5052972;28;20271;-69
2021/08/26 03:29:44;;;;;;;1999.90;999.90;;;;;;;15.42;75.41;97453.56;5053478;28;20437;-69
2021/08/26 03:32:11;;;;;;;1999.90;999.90;;;;;;;15.59;74.99;97452.16;5051404;28;20380;-69
2021/08/26 03:34:38;;;;;;;1999.90;999.90;;;;;;;15.43;74.91;97449.59;5056232;28;20056;-68
2021/08/26 03:37:05;;;;;;;1999.90;999.90;;;;;;;15.61;74.46;97455.34;5053215;28;20049;-68
2021/08/26 03:39:32;;;;;;;1999.90;999.90;;;;;;;15.48;74.79;97449.25;5053735;28;20178;-68
2021/08/26 03:41:59;;;;;;;1999.90;999.90;;;;;;;15.63;74.28;97447.44;5051808;28;20354;-68
2021/08/26 03:44:25;;;;;;;1999.90;999.90;;;;;;;15.47;74.35;97444.06;5053592;28;20052;-68
2021/08/26 03:46:52;;;;;;;1999.90;999.90;;;;;;;15.42;74.50;97442.44;5051185;28;20487;-68
2021/08/26 03:49:19;;;;;;;1999.90;999.90;;;;;;;15.07;75.85;97445.56;5052767;28;20079;-68
2021/08/26 03:51:45;;;;;;;1999.90;999.90;;;;;;;15.41;75.10;97451.97;5052555;28;20048;-68
2021/08/26 03:54:12;;;;;;;1999.90;999.90;;;;;;;15.27;75.61;97447.03;5083145;28;20041;-69
2021/08/26 03:56:39;;;;;;;1999.90;999.90;;;;;;;15.47;74.72;97442.06;5050705;28;20090;-69
2021/08/26 03:59:05;;;;;;;1999.90;999.90;;;;;;;15.29;75.44;97444.66;5052771;28;20099;-69
2021/08/26 04:01:32;;;;;;;1999.90;999.90;;;;;;;15.53;74.34;97436.16;5051329;28;20057;-69
2021/08/26 04:03:59;;;;;;;1999.90;999.90;;;;;;;15.36;75.02;97446.72;5051175;28;20139;-68
2021/08/26 04:06:26;;;;;;;1999.90;999.90;;;;;;;15.56;74.92;97447.34;5053585;28;20049;-69
2021/08/26 04:08:53;;;;;;;1999.90;999.90;;;;;;;15.50;74.51;97435.75;5052784;28;20044;-69
2021/08/26 04:11:19;;;;;;;1999.90;999.90;;;;;;;15.28;75.26;97436.69;5045524;28;20053;-68
2021/08/26 04:13:46;;;;;;;1999.90;999.90;;;;;;;15.33;75.60;97433.53;5047083;28;20049;-68
2021/08/26 04:16:13;;;;;;;1999.90;999.90;;;;;;;15.59;74.81;97429.88;5046626;28;20076;-68
2021/08/26 04:18:40;;;;;;;1999.90;999.90;;;;;;;15.44;75.14;97428.91;5047729;28;20442;-68
2021/08/26 04:21:06;;;;;;;1999.90;999.90;;;;;;;15.39;75.24;97420.88;5048265;28;20049;-69
2021/08/26 04:23:33;;;;;;;1999.90;999.90;;;;;;;15.30;75.74;97426.78;5047083;28;20418;-69
2021/08/26 04:26:01;;;;;;;1999.90;999.90;;;;;;;15.46;75.49;97422.97;5045758;28;20053;-68
2021/08/26 04:28:27;;;;;;;1999.90;999.90;;;;;;;15.48;75.83;97429.75;5049905;28;20164;-68
2021/08/26 04:30:54;;;;;;;1999.90;999.90;;;;;;;15.26;77.55;97437.06;5048105;28;20049;-69
2021/08/26 04:33:21;;;;;;;1999.90;999.90;;;;;;;15.21;79.20;97429.03;5048331;28;20053;-69
2021/08/26 04:35:48;;;;;;;1999.90;999.90;;;;;;;15.11;79.91;97435.25;5046921;28;20049;-69
2021/08/26 04:38:14;;;;;;;1999.90;999.90;;;;;;;14.79;82.04;97427.28;5047639;28;20045;-68
2021/08/26 04:40:41;;;;;;;1999.90;999.90;;;;;;;15.24;81.72;97421.91;5048639;28;20126;-68
2021/08/26 04:43:08;;;;;;;1999.90;999.90;;;;;;;15.20;81.52;97412.69;5047257;28;20207;-68
2021/08/26 04:45:34;;;;;;;1999.90;999.90;;;;;;;15.17;82.35;97403.16;5048926;28;20110;-69
2021/08/26 04:48:01;;;;;;;1999.90;999.90;;;;;;;15.42;82.24;97383.94;5048081;28;20094;-68
2021/08/26 04:50:28;;;;;;;1999.90;999.90;;;;;;;15.19;83.48;97374.91;5047814;28;20106;-69
2021/08/26 04:52:55;;;;;;;1999.90;999.90;;;;;;;15.05;84.63;97390.28;5048566;28;20363;-69
2021/08/26 04:55:21;;;;;;;1999.90;999.90;;;;;;;15.04;84.80;97388.66;5048397;28;20049;-68
2021/08/26 04:57:48;;;;;;;1999.90;999.90;;;;;;;14.63;87.01;97401.63;5059281;28;20060;-68
2021/08/26 05:00:15;;;;;;;1999.90;999.90;;;;;;;14.75;86.08;97390.25;5048930;28;20064;-68
2021/08/26 05:02:42;;;;;;;1999.90;999.90;;;;;;;14.42;87.48;97395.34;5048677;28;20055;-68
2021/08/26 05:05:09;;;;;;;1999.90;999.90;;;;;;;14.85;86.44;97386.81;5064203;28;20048;-68
2021/08/26 05:07:36;;;;;;;1999.90;999.90;;;;;;;14.76;86.86;97389.88;5030506;28;20053;-67
2021/08/26 05:10:04;;;;;;;1999.90;999.90;;;;;;;14.47;89.08;97408.13;5049072;28;20060;-67
2021/08/26 05:12:31;;;;;;;1999.90;999.90;;;;;;;13.99;91.66;97408.53;5047718;28;20051;-67
2021/08/26 05:14:58;;;;;;;1999.90;999.90;;;;;;;14.19;91.09;97412.06;5048820;28;20135;-70
2021/08/26 05:17:24;;;;;;;1999.90;999.90;;;;;;;14.37;90.42;97408.78;5047236;28;20406;-68
2021/08/26 05:19:51;;;;;;;1999.90;999.90;;;;;;;14.33;91.50;97399.56;5048581;28;20060;-68
2021/08/26 05:22:18;;;;;;;1999.90;999.90;;;;;;;14.40;91.21;97394.91;5048323;28;20404;-67
2021/08/26 05:24:47;;;;;;;1999.90;999.90;;;;;;;14.35;91.33;97403.59;5048473;28;20397;-68
2021/08/26 05:27:14;;;;;;;1999.90;999.90;;;;;;;14.62;90.09;97400.84;5047728;28;20445;-69
2021/08/26 05:29:41;;;;;;;1999.90;999.90;;;;;;;14.69;89.85;97395.34;5048116;28;20040;-68
2021/08/26 05:32:07;;;;;;;1999.90;999.90;;;;;;;15.32;87.33;97390.19;5048139;28;20083;-68
2021/08/26 05:34:34;;;;;;;1999.90;999.90;;;;;;;15.20;87.55;97401.56;5048686;28;20056;-69
2021/08/26 05:37:01;;;;;;;1999.90;999.90;;;;;;;14.83;88.98;97402.28;5047745;28;20048;-67
2021/08/26 05:39:28;;;;;;;1999.90;999.90;;;;;;;14.99;88.79;97414.06;5048684;28;20090;-69
2021/08/26 05:41:56;;;;;;;1999.90;999.90;;;;;;;14.48;90.88;97412.50;5047659;28;20056;-67
2021/08/26 05:44:22;;;;;;;1999.90;999.90;;;;;;;14.29;93.40;97405.09;5047953;28;20126;-68
2021/08/26 05:46:49;;;;;;;1999.90;999.90;;;;;;;14.05;94.84;97395.97;5048151;28;20045;-68
2021/08/26 05:49:16;;;;;;;1999.90;999.90;;;;;;;13.99;95.54;97400.22;5048222;28;20078;-68
2021/08/26 05:51:42;;;;;;;1999.90;999.90;;;;;;;13.81;96.78;97393.56;5051622;28;20052;-68
2021/08/26 05:54:09;;;;;;;1999.90;999.90;;;;;;;14.08;96.61;97405.50;5051796;28;20449;-67
2021/08/26 05:56:36;;;;;;;1999.90;999.90;;;;;;;14.26;95.95;97398.28;5034472;28;20057;-67
2021/08/26 05:59:03;;;;;;;1999.90;999.90;;;;;;;14.20;96.07;97398.97;5052674;28;20517;-68
2021/08/26 06:01:30;;;;;;;1999.90;999.90;;;;;;;14.08;95.48;97405.50;5051805;28;20049;-68
2021/08/26 06:03:57;;;;;;;1999.90;999.90;;;;;;;13.85;97.16;97399.97;5051693;28;20049;-69
2021/08/26 06:06:24;;;;;;;1999.90;999.90;;;;;;;13.68;98.06;97395.69;5056737;28;20045;-68
2021/08/26 06:08:51;;;;;;;1999.90;999.90;;;;;;;13.88;97.92;97404.81;5054816;28;20049;-68
2021/08/26 06:11:17;;;;;;;1999.90;999.90;;;;;;;13.54;98.67;97405.38;5050881;28;20399;-67
2021/08/26 06:13:44;;;;;;;1999.90;999.90;;;;;;;13.68;99.26;97410.41;5052729;28;20057;-68
2021/08/26 06:16:11;;;;;;;1999.90;999.90;;;;;;;13.64;99.44;97403.97;5051562;28;20049;-69
2021/08/26 06:18:38;;;;;;;1999.90;999.90;;;;;;;13.67;99.65;97408.00;5050307;28;20425;-68
2021/08/26 06:21:05;;;;;;;1999.90;999.90;;;;;;;13.30;100.00;97416.78;5040789;28;20053;-67
2021/08/26 06:23:32;;;;;;;1999.90;999.90;;;;;;;13.49;100.00;97413.22;5051131;28;20049;-68
2021/08/26 06:25:59;;;;;;;1999.90;999.90;;;;;;;13.12;100.00;97416.44;5051999;28;20219;-67
2021/08/26 06:28:25;;;;;;;1999.90;999.90;;;;;;;13.52;100.00;97401.38;5051014;28;20099;-67
2021/08/26 06:30:52;;;;;;;1999.90;999.90;;;;;;;13.97;99.51;97408.13;5051411;28;20373;-67
2021/08/26 06:33:19;;;;;;;1999.90;999.90;;;;;;;13.91;99.04;97407.63;5051112;28;20068;-67
2021/08/26 06:35:46;;;;;;;1999.90;999.90;;;;;;;14.12;98.33;97419.50;5051627;28;20095;-67
2021/08/26 06:38:13;;;;;;;1999.90;999.90;;;;;;;14.43;97.42;97405.28;5050417;28;20044;-68
2021/08/26 06:40:39;;;;;;;1999.90;999.90;;;;;;;14.54;96.35;97401.84;5051304;28;20060;-67
2021/08/26 06:43:06;;;;;;;1999.90;999.90;;;;;;;14.57;95.86;97401.94;5050813;28;20061;-68
2021/08/26 06:45:33;;;;;;;1999.90;999.90;;;;;;;14.51;97.04;97395.06;5050553;28;20583;-68
2021/08/26 06:48:00;;;;;;;1999.90;999.90;;;;;;;14.67;96.33;97408.84;5051459;28;20472;-67
2021/08/26 06:50:26;;;;;;;1999.90;999.90;;;;;;;14.47;97.01;97410.91;5056159;28;20110;-67
2021/08/26 06:52:53;;;;;;;1999.90;999.90;;;;;;;14.17;98.34;97397.75;5050333;28;20476;-67
2021/08/26 06:55:20;;;;;;;1999.90;999.90;;;;;;;14.25;98.78;97393.09;5051902;28;20424;-67
2021/08/26 06:57:47;;;;;;;1999.90;999.90;;;;;;;14.42;98.35;97398.13;5052225;28;20259;-67
2021/08/26 07:00:14;;;;;;;1999.90;999.90;;;;;;;14.45;97.56;97410.47;5051042;28;20251;-68
2021/08/26 07:02:41;;;;;;;1999.90;999.90;;;;;;;14.21;98.82;97400.56;5051034;28;20076;-68
2021/08/26 07:05:09;;;;;;;1999.90;999.90;;;;;;;13.81;100.00;97391.56;5050468;28;20056;-68
2021/08/26 07:07:36;;;;;;;1999.90;999.90;;;;;;;13.54;100.00;97394.28;5049644;28;20057;-67
2021/08/26 07:10:04;;;;;;;1999.90;999.90;;;;;;;13.95;100.00;97406.88;5050893;28;20460;-67
2021/08/26 07:12:31;;;;;;;1999.90;999.90;;;;;;;14.00;100.00;97404.59;5051433;28;20679;-67
2021/08/26 07:15:00;;;;;;;1999.90;999.90;;;;;;;13.65;100.00;97399.22;5050237;28;20080;-68
2021/08/26 07:17:27;;;;;;;1999.90;999.90;;;;;;;13.53;100.00;97397.41;5055127;28;20095;-68
2021/08/26 07:19:54;;;;;;;1999.90;999.90;;;;;;;13.82;100.00;97392.38;5051470;28;20048;-66
2021/08/26 07:22:21;;;;;;;1999.90;999.90;;;;;;;13.60;100.00;97392.00;5050541;28;20053;-68
2021/08/26 07:24:47;;;;;;;1999.90;999.90;;;;;;;14.09;100.00;97401.56;5050348;28;20063;-68
2021/08/26 07:27:14;;;;;;;1999.90;999.90;;;;;;;13.97;100.00;97394.22;5065745;28;20049;-69
2021/08/26 07:29:41;;;;;;;1999.90;999.90;;;;;;;13.76;100.00;97393.88;5057564;28;20049;-68
2021/08/26 07:32:07;;;;;;;1999.90;999.90;;;;;;;13.73;100.00;97389.84;5055478;28;20462;-67
2021/08/26 07:34:34;;;;;;;1999.90;999.90;;;;;;;13.80;100.00;97383.59;5049297;28;20065;-68
2021/08/26 07:37:01;;;;;;;1999.90;999.90;;;;;;;13.82;100.00;97389.63;5050563;28;20053;-67
2021/08/26 07:39:28;;;;;;;1999.90;999.90;;;;;;;13.86;100.00;97390.47;5049968;28;20284;-68
2021/08/26 07:41:54;;;;;;;1999.90;999.90;;;;;;;13.85;100.00;97397.19;5049727;28;20060;-69
2021/08/26 07:44:21;;;;;;;1999.90;999.90;;;;;;;14.07;100.00;97410.28;5080528;28;20056;-68
2021/08/26 07:46:48;;;;;;;1999.90;999.90;;;;;;;13.53;100.00;97401.00;5049900;28;20060;-68
2021/08/26 07:49:15;;;;;;;1999.90;999.90;;;;;;;13.93;100.00;97403.69;5049630;28;20459;-68
2021/08/26 07:51:41;;;;;;;1999.90;999.90;;;;;;;14.16;100.00;97406.47;5049710;28;20048;-66
2021/08/26 07:54:08;;;;;;;1999.90;999.90;;;;;;;13.86;100.00;97407.94;5050656;28;20061;-66
2021/08/26 07:56:35;;;;;;;1999.90;999.90;;;;;;;13.94;100.00;97417.19;5049478;28;20095;-67
2021/08/26 07:59:03;;;;;;;1999.90;999.90;;;;;;;13.73;100.00;97409.31;5049314;28;20102;-68
2021/08/26 08:01:29;;;;;;;1999.90;999.90;;;;;;;13.63;100.00;97410.69;5050385;28;20080;-68
2021/08/26 08:03:56;;;;;;;1999.90;999.90;;;;;;;13.57;100.00;97404.63;5049647;28;20107;-68
2021/08/26 08:06:23;;;;;;;1999.90;999.90;;;;;;;13.86;100.00;97410.72;5048800;28;20103;-68
2021/08/26 08:08:50;;;;;;;1999.90;999.90;;;;;;;13.95;100.00;97410.47;5063027;28;20044;-68
2021/08/26 08:11:17;;;;;;;1999.90;999.90;;;;;;;14.16;100.00;97400.91;5053064;28;20118;-69
2021/08/26 08:14:01;;;;;;;1999.90;999.90;;;;;;;14.45;100.00;97407.69;5048747;28;20088;-69
2021/08/26 08:16:28;;;;;;;1999.90;999.90;;;;;;;14.65;100.00;97408.44;5048178;28;20053;-69
2021/08/26 08:18:54;;;;;;;1999.90;999.90;;;;;;;14.19;100.00;97400.16;5048898;28;20048;-69
2021/08/26 08:21:21;;;;;;;1999.90;999.90;;;;;;;14.47;100.00;97393.41;5049258;28;20103;-67
2021/08/26 08:23:48;;;;;;;1999.90;999.90;;;;;;;14.41;100.00;97401.25;5049182;28;20053;-67
2021/08/26 08:26:14;;;;;;;1999.90;999.90;;;;;;;14.54;100.00;97399.06;5049859;28;20080;-68
2021/08/26 08:28:41;;;;;;;1999.90;999.90;;;;;;;14.71;100.00;97397.78;5050964;28;20102;-68
2021/08/26 08:31:08;;;;;;;1999.90;999.90;;;;;;;14.61;100.00;97396.44;5049663;28;20049;-68
2021/08/26 08:33:35;;;;;;;1999.90;999.90;;;;;;;14.40;100.00;97394.13;5048992;28;20335;-68
2021/08/26 08:36:03;;;;;;;1999.90;999.90;;;;;;;14.53;100.00;97394.69;5048581;28;20057;-68
2021/08/26 08:38:30;;;;;;;1999.90;999.90;;;;;;;14.55;100.00;97397.91;5049472;28;20389;-68
2021/08/26 08:40:57;;;;;;;1999.90;999.90;;;;;;;14.34;100.00;97401.97;5048565;28;20106;-69
2021/08/26 08:43:23;;;;;;;1999.90;999.90;;;;;;;14.37;100.00;97394.88;5048524;28;20056;-67
2021/08/26 08:45:52;;;;;;;1999.90;999.90;;;;;;;14.36;100.00;97396.81;5048432;28;20048;-68
2021/08/26 08:48:20;;;;;;;1999.90;999.90;;;;;;;14.20;100.00;97407.28;5048164;28;20045;-68
2021/08/26 08:50:47;;;;;;;1999.90;999.90;;;;;;;14.38;100.00;97408.41;5049726;28;20072;-68
2021/08/26 08:53:15;;;;;;;1999.90;999.90;;;;;;;14.73;100.00;97396.19;5048576;28;20408;-68
2021/08/26 08:55:44;;;;;;;1999.90;999.90;;;;;;;14.73;100.00;97389.84;5049154;28;20073;-68
2021/08/26 08:58:12;;;;;;;1999.90;999.90;;;;;;;14.63;100.00;97396.84;5048932;28;20125;-68
2021/08/26 09:00:39;;;;;;;1999.90;999.90;;;;;;;14.89;100.00;97396.03;5048326;28;20488;-68
2021/08/26 09:03:06;;;;;;;1999.90;999.90;;;;;;;14.57;100.00;97395.53;5048225;28;20308;-68
2021/08/26 09:05:57;;;;;;;1999.90;999.90;;;;;;;14.61;100.00;97394.44;5048009;28;20049;-68
2021/08/26 09:08:28;;;;;;;1999.90;999.90;;;;;;;14.33;100.00;97405.13;5049399;28;20056;-68
2021/08/26 09:11:15;;;;;;;1999.90;999.90;;;;;;;14.37;100.00;97406.00;5053375;28;20395;-68
2021/08/26 09:13:43;;;;;;;1999.90;999.90;;;;;;;14.44;100.00;97406.91;5048560;28;20057;-68
2021/08/26 09:16:11;;;;;;;1999.90;999.90;;;;;;;14.73;100.00;97410.13;5048056;28;20052;-68
2021/08/26 09:18:38;;;;;;;1999.90;999.90;;;;;;;14.75;100.00;97399.44;5049155;28;20053;-68
2021/08/26 09:21:07;;;;;;;1999.90;999.90;;;;;;;14.76;100.00;97406.56;5047869;28;20049;-68
2021/08/26 09:23:50;;;;;;;1999.90;999.90;;;;;;;14.35;100.00;97414.72;5048294;28;20645;-68
2021/08/26 09:26:18;;;;;;;1999.90;999.90;;;;;;;14.71;100.00;97409.69;5049368;28;20106;-68
2021/08/26 09:28:45;;;;;;;1999.90;999.90;;;;;;;14.84;100.00;97401.94;5048127;28;20416;-68
2021/08/26 09:31:23;;;;;;;1999.90;999.90;;;;;;;15.10;100.00;97398.28;5047966;28;20503;-68
2021/08/26 09:33:53;;;;;;;1999.90;999.90;;;;;;;15.05;100.00;97393.06;5047808;28;20172;-68
2021/08/26 09:36:30;;;;;;;1999.90;999.90;;;;;;;15.03;100.00;97389.03;5047699;28;20056;-68
2021/08/26 09:39:17;;;;;;;1999.90;999.90;;;;;;;15.00;100.00;97387.00;5047896;28;20103;-68
2021/08/26 09:42:10;;;;;;;1999.90;999.90;;;;;;;15.06;100.00;97385.50;5047896;28;20086;-68
2021/08/26 09:44:37;;;;;;;1999.90;999.90;;;;;;;15.10;100.00;97386.34;5034442;28;20472;-68
2021/08/26 09:47:12;;;;;;;1999.90;999.90;;;;;;;15.24;100.00;97380.94;5049025;28;20126;-68
2021/08/26 09:49:40;;;;;;;1999.90;999.90;;;;;;;15.24;100.00;97382.91;5048120;28;20053;-68
2021/08/26 09:52:13;;;;;;;1999.90;999.90;;;;;;;14.76;100.00;97384.31;5048198;28;20052;-68
2021/08/26 09:54:44;;;;;;;1999.90;999.90;;;;;;;14.93;100.00;97382.97;5030754;28;20053;-68
2021/08/26 09:57:30;;;;;;;1999.90;999.90;;;;;;;15.44;100.00;97373.19;5048257;28;20052;-68
2021/08/26 10:00:01;;;;;;;1999.90;999.90;;;;;;;15.56;100.00;97379.69;5046530;28;20106;-68
2021/08/26 10:02:30;;;;;;;1999.90;999.90;;;;;;;15.87;100.00;97372.03;5048131;28;20077;-68
2021/08/26 10:04:57;;;;;;;1999.90;999.90;;;;;;;15.69;100.00;97369.88;5046655;28;20056;-68
2021/08/26 10:07:26;;;;;;;1999.90;999.90;;;;;;;15.77;100.00;97360.38;5048122;28;20087;-69
2021/08/26 10:09:53;;;;;;;1999.90;999.90;;;;;;;15.58;100.00;97364.19;5047653;28;20082;-68
2021/08/26 10:12:20;;;;;;;1999.90;999.90;;;;;;;15.60;100.00;97369.38;5047476;28;20048;-68
2021/08/26 10:14:50;;;;;;;1999.90;999.90;;;;;;;15.44;100.00;97367.63;5048361;28;20441;-69
2021/08/26 10:17:17;;;;;;;1999.90;999.90;;;;;;;15.34;100.00;97368.31;5047441;28;20052;-68
2021/08/26 10:19:44;;;;;;;1999.90;999.90;;;;;;;15.04;100.00;97371.16;5045274;28;20041;-67
2021/08/26 10:22:13;;;;;;;1999.90;999.90;;;;;;;15.25;100.00;97371.41;5064122;28;20048;-68
2021/08/26 10:24:40;;;;;;;1999.90;999.90;;;;;;;15.42;100.00;97364.44;5049231;28;20068;-68
2021/08/26 10:27:14;;;;;;;1999.90;999.90;;;;;;;15.60;100.00;97364.63;5047368;28;20170;-69
2021/08/26 10:29:47;;;;;;;1999.90;999.90;;;;;;;15.28;100.00;97367.84;5030583;28;20045;-68
2021/08/26 10:32:24;;;;;;;1999.90;999.90;;;;;;;15.02;100.00;97371.53;5048292;28;20049;-68
2021/08/26 10:35:12;;;;;;;1999.90;999.90;;;;;;;15.23;100.00;97370.16;5048172;28;20049;-68
2021/08/26 10:37:50;;;;;;;1999.90;999.90;;;;;;;15.59;100.00;97357.44;5051066;28;20499;-68
2021/08/26 10:40:39;;;;;;;1999.90;999.90;;;;;;;15.55;100.00;97369.72;5034870;28;20068;-68
2021/08/26 10:43:27;;;;;;;1999.90;999.90;;;;;;;15.48;100.00;97371.25;5050066;28;20064;-67
2021/08/26 10:45:53;;;;;;;1999.90;999.90;;;;;;;15.93;100.00;97371.31;5051434;28;20053;-68
2021/08/26 10:48:22;;;;;;;1999.90;999.90;;;;;;;16.05;100.00;97361.84;5051021;28;20064;-68
2021/08/26 10:51:04;;;;;;;1999.90;999.90;;;;;;;15.79;100.00;97360.03;5050902;28;20346;-68
2021/08/26 10:53:33;;;;;;;1999.90;999.90;;;;;;;15.68;100.00;97359.91;5051270;28;20396;-67
2021/08/26 10:56:25;;;;;;;1999.90;999.90;;;;;;;15.89;100.00;97361.31;5051852;28;20061;-68
2021/08/26 10:58:57;;;;;;;1999.90;999.90;;;;;;;15.59;100.00;97367.78;5049344;28;20060;-68
2021/08/26 11:01:31;;;;;;;;;;;;;;;15.96;100.00;97364.97;5051675;28;20061;-68
2021/08/26 11:04:06;;;;;;;1999.90;999.90;;;;;;;15.63;100.00;97368.59;5051364;28;19928;-66